sensor_id;sensor_type;location;lat;lon;timestamp;P1;durP1;ratioP1;P2;durP2;ratioP2
10442;SDS011;5269;51.146;16.986;2022-12-16T00:01:04;54.43;;;29.10;;
10442;SDS011;5269;51.146;16.986;2022-12-16T00:03:33;56.70;;;29.20;;
10442;SDS011;5269;51.146;16.986;2022-12-16T00:06:00;58.60;;;29.20;;
10442;SDS011;5269;51.146;16.986;2022-12-16T00:08:30;54.87;;;28.10;;
10442;SDS011;5269;51.146;16.986;2022-12-16T00:10:58;54.37;;;26.73;;
10442;SDS011;5269;51.146;16.986;2022-12-16T00:13:25;53.17;;;27.43;;
10442;SDS011;5269;51.146;16.986;2022-12-16T00:15:53;49.13;;;28.00;;
10442;SDS011;5269;51.146;16.986;2022-12-16T00:18:20;51.07;;;26.80;;
10442;SDS011;5269;51.146;16.986;2022-12-16T00:20:50;53.17;;;27.67;;
10442;SDS011;5269;51.146;16.986;2022-12-16T00:23:18;51.47;;;26.90;;
10442;SDS011;5269;51.146;16.986;2022-12-16T00:25:46;52.30;;;27.47;;
10442;SDS011;5269;51.146;16.986;2022-12-16T00:28:13;51.80;;;25.63;;
10442;SDS011;5269;51.146;16.986;2022-12-16T00:30:41;50.17;;;26.57;;
10442;SDS011;5269;51.146;16.986;2022-12-16T00:33:09;52.17;;;26.57;;
10442;SDS011;5269;51.146;16.986;2022-12-16T00:35:37;50.33;;;26.67;;
10442;SDS011;5269;51.146;16.986;2022-12-16T00:38:05;51.77;;;27.07;;
10442;SDS011;5269;51.146;16.986;2022-12-16T00:40:32;55.73;;;26.73;;
10442;SDS011;5269;51.146;16.986;2022-12-16T00:42:59;51.30;;;27.07;;
10442;SDS011;5269;51.146;16.986;2022-12-16T00:45:26;48.30;;;25.80;;
10442;SDS011;5269;51.146;16.986;2022-12-16T00:47:53;48.77;;;24.87;;
10442;SDS011;5269;51.146;16.986;2022-12-16T00:50:20;52.17;;;26.03;;
10442;SDS011;5269;51.146;16.986;2022-12-16T00:52:48;52.57;;;26.27;;
10442;SDS011;5269;51.146;16.986;2022-12-16T00:55:17;48.50;;;25.27;;
10442;SDS011;5269;51.146;16.986;2022-12-16T00:57:45;47.97;;;26.13;;
10442;SDS011;5269;51.146;16.986;2022-12-16T01:00:12;51.87;;;26.43;;
10442;SDS011;5269;51.146;16.986;2022-12-16T01:02:41;48.23;;;24.43;;
10442;SDS011;5269;51.146;16.986;2022-12-16T01:05:09;46.63;;;23.77;;
10442;SDS011;5269;51.146;16.986;2022-12-16T01:07:38;44.37;;;24.10;;
10442;SDS011;5269;51.146;16.986;2022-12-16T01:10:06;45.43;;;23.37;;
10442;SDS011;5269;51.146;16.986;2022-12-16T01:12:35;42.87;;;22.97;;
10442;SDS011;5269;51.146;16.986;2022-12-16T01:15:04;42.20;;;22.00;;
10442;SDS011;5269;51.146;16.986;2022-12-16T01:17:32;43.90;;;22.43;;
10442;SDS011;5269;51.146;16.986;2022-12-16T01:20:00;37.97;;;22.50;;
10442;SDS011;5269;51.146;16.986;2022-12-16T01:22:28;38.30;;;20.53;;
10442;SDS011;5269;51.146;16.986;2022-12-16T01:24:56;37.70;;;21.33;;
10442;SDS011;5269;51.146;16.986;2022-12-16T01:27:23;42.80;;;21.90;;
10442;SDS011;5269;51.146;16.986;2022-12-16T01:29:51;44.67;;;23.33;;
10442;SDS011;5269;51.146;16.986;2022-12-16T01:32:18;40.53;;;22.40;;
10442;SDS011;5269;51.146;16.986;2022-12-16T01:34:47;38.60;;;20.60;;
10442;SDS011;5269;51.146;16.986;2022-12-16T01:37:15;38.77;;;21.13;;
10442;SDS011;5269;51.146;16.986;2022-12-16T01:39:42;40.53;;;21.43;;
10442;SDS011;5269;51.146;16.986;2022-12-16T01:42:10;37.73;;;21.13;;
10442;SDS011;5269;51.146;16.986;2022-12-16T01:44:40;37.13;;;19.80;;
10442;SDS011;5269;51.146;16.986;2022-12-16T01:47:12;36.07;;;19.77;;
10442;SDS011;5269;51.146;16.986;2022-12-16T01:49:41;37.97;;;20.23;;
10442;SDS011;5269;51.146;16.986;2022-12-16T01:52:12;37.07;;;18.77;;
10442;SDS011;5269;51.146;16.986;2022-12-16T01:54:44;35.57;;;18.77;;
10442;SDS011;5269;51.146;16.986;2022-12-16T01:57:16;37.40;;;19.27;;
10442;SDS011;5269;51.146;16.986;2022-12-16T01:59:46;36.83;;;19.30;;
10442;SDS011;5269;51.146;16.986;2022-12-16T02:02:18;38.60;;;19.50;;
10442;SDS011;5269;51.146;16.986;2022-12-16T02:04:46;35.80;;;19.77;;
10442;SDS011;5269;51.146;16.986;2022-12-16T02:07:28;33.10;;;18.97;;
10442;SDS011;5269;51.146;16.986;2022-12-16T02:09:55;33.23;;;17.40;;
10442;SDS011;5269;51.146;16.986;2022-12-16T02:12:24;33.17;;;19.60;;
10442;SDS011;5269;51.146;16.986;2022-12-16T02:15:03;35.57;;;20.03;;
10442;SDS011;5269;51.146;16.986;2022-12-16T02:17:52;34.37;;;18.37;;
10442;SDS011;5269;51.146;16.986;2022-12-16T02:23:52;35.43;;;18.43;;
10442;SDS011;5269;51.146;16.986;2022-12-16T02:26:39;31.43;;;17.93;;
10442;SDS011;5269;51.146;16.986;2022-12-16T02:32:29;34.20;;;17.07;;
10442;SDS011;5269;51.146;16.986;2022-12-16T02:35:08;33.90;;;18.40;;
10442;SDS011;5269;51.146;16.986;2022-12-16T02:37:41;33.13;;;18.70;;
10442;SDS011;5269;51.146;16.986;2022-12-16T02:40:15;33.03;;;19.67;;
10442;SDS011;5269;51.146;16.986;2022-12-16T02:42:49;33.20;;;17.33;;
10442;SDS011;5269;51.146;16.986;2022-12-16T02:45:20;31.93;;;17.50;;
10442;SDS011;5269;51.146;16.986;2022-12-16T02:47:52;27.33;;;16.57;;
10442;SDS011;5269;51.146;16.986;2022-12-16T02:50:19;35.17;;;18.60;;
10442;SDS011;5269;51.146;16.986;2022-12-16T02:52:48;30.57;;;17.00;;
10442;SDS011;5269;51.146;16.986;2022-12-16T02:55:17;29.20;;;16.87;;
10442;SDS011;5269;51.146;16.986;2022-12-16T02:57:49;31.50;;;17.00;;
10442;SDS011;5269;51.146;16.986;2022-12-16T03:00:27;32.97;;;17.80;;
10442;SDS011;5269;51.146;16.986;2022-12-16T03:03:04;30.87;;;16.43;;
10442;SDS011;5269;51.146;16.986;2022-12-16T03:05:34;29.63;;;16.77;;
10442;SDS011;5269;51.146;16.986;2022-12-16T03:08:06;32.97;;;19.10;;
10442;SDS011;5269;51.146;16.986;2022-12-16T03:10:38;28.97;;;16.90;;
10442;SDS011;5269;51.146;16.986;2022-12-16T03:13:09;28.47;;;16.00;;
10442;SDS011;5269;51.146;16.986;2022-12-16T03:15:38;31.80;;;17.43;;
10442;SDS011;5269;51.146;16.986;2022-12-16T03:18:08;29.00;;;15.80;;
10442;SDS011;5269;51.146;16.986;2022-12-16T03:20:38;26.60;;;15.50;;
10442;SDS011;5269;51.146;16.986;2022-12-16T03:23:10;30.07;;;16.17;;
10442;SDS011;5269;51.146;16.986;2022-12-16T03:25:41;29.37;;;15.33;;
10442;SDS011;5269;51.146;16.986;2022-12-16T03:28:12;22.93;;;14.87;;
10442;SDS011;5269;51.146;16.986;2022-12-16T03:30:50;28.87;;;16.00;;
10442;SDS011;5269;51.146;16.986;2022-12-16T03:33:24;24.37;;;14.17;;
10442;SDS011;5269;51.146;16.986;2022-12-16T03:35:56;29.70;;;15.47;;
10442;SDS011;5269;51.146;16.986;2022-12-16T03:38:27;28.30;;;16.17;;
10442;SDS011;5269;51.146;16.986;2022-12-16T03:40:56;29.43;;;14.73;;
10442;SDS011;5269;51.146;16.986;2022-12-16T03:43:25;26.90;;;13.73;;
10442;SDS011;5269;51.146;16.986;2022-12-16T03:45:53;29.10;;;16.80;;
10442;SDS011;5269;51.146;16.986;2022-12-16T03:48:26;29.13;;;14.63;;
10442;SDS011;5269;51.146;16.986;2022-12-16T03:50:53;29.93;;;16.10;;
10442;SDS011;5269;51.146;16.986;2022-12-16T03:53:20;28.73;;;16.07;;
10442;SDS011;5269;51.146;16.986;2022-12-16T03:55:50;29.03;;;15.50;;
10442;SDS011;5269;51.146;16.986;2022-12-16T03:58:17;32.00;;;16.87;;
10442;SDS011;5269;51.146;16.986;2022-12-16T04:00:44;28.50;;;16.43;;
10442;SDS011;5269;51.146;16.986;2022-12-16T04:03:11;30.17;;;15.43;;
10442;SDS011;5269;51.146;16.986;2022-12-16T04:05:39;28.53;;;16.10;;
10442;SDS011;5269;51.146;16.986;2022-12-16T04:08:06;28.37;;;15.87;;
10442;SDS011;5269;51.146;16.986;2022-12-16T04:10:33;22.03;;;12.37;;
10442;SDS011;5269;51.146;16.986;2022-12-16T04:13:17;26.57;;;14.23;;
10442;SDS011;5269;51.146;16.986;2022-12-16T04:16:02;21.30;;;11.70;;
10442;SDS011;5269;51.146;16.986;2022-12-16T04:18:46;25.97;;;14.20;;
10442;SDS011;5269;51.146;16.986;2022-12-16T04:21:32;25.63;;;13.63;;
10442;SDS011;5269;51.146;16.986;2022-12-16T04:24:17;27.90;;;15.17;;
10442;SDS011;5269;51.146;16.986;2022-12-16T04:26:46;24.87;;;14.27;;
10442;SDS011;5269;51.146;16.986;2022-12-16T04:29:31;25.43;;;13.67;;
10442;SDS011;5269;51.146;16.986;2022-12-16T04:31:58;26.17;;;15.43;;
10442;SDS011;5269;51.146;16.986;2022-12-16T04:34:25;25.00;;;13.63;;
10442;SDS011;5269;51.146;16.986;2022-12-16T04:36:55;18.70;;;11.43;;
10442;SDS011;5269;51.146;16.986;2022-12-16T04:39:41;21.83;;;13.57;;
10442;SDS011;5269;51.146;16.986;2022-12-16T04:42:25;25.87;;;13.07;;
10442;SDS011;5269;51.146;16.986;2022-12-16T04:45:10;23.20;;;13.83;;
10442;SDS011;5269;51.146;16.986;2022-12-16T04:47:54;24.53;;;13.40;;
10442;SDS011;5269;51.146;16.986;2022-12-16T04:50:38;21.97;;;12.80;;
10442;SDS011;5269;51.146;16.986;2022-12-16T04:53:24;27.27;;;14.17;;
10442;SDS011;5269;51.146;16.986;2022-12-16T04:56:09;28.60;;;14.87;;
10442;SDS011;5269;51.146;16.986;2022-12-16T04:58:54;23.90;;;13.00;;
10442;SDS011;5269;51.146;16.986;2022-12-16T05:01:38;26.37;;;14.50;;
10442;SDS011;5269;51.146;16.986;2022-12-16T05:04:22;23.50;;;14.40;;
10442;SDS011;5269;51.146;16.986;2022-12-16T05:07:07;26.27;;;13.93;;
10442;SDS011;5269;51.146;16.986;2022-12-16T05:09:53;25.53;;;14.30;;
10442;SDS011;5269;51.146;16.986;2022-12-16T05:12:39;25.97;;;14.33;;
10442;SDS011;5269;51.146;16.986;2022-12-16T05:15:24;26.53;;;15.00;;
10442;SDS011;5269;51.146;16.986;2022-12-16T05:18:08;26.83;;;14.50;;
10442;SDS011;5269;51.146;16.986;2022-12-16T05:20:53;22.30;;;13.07;;
10442;SDS011;5269;51.146;16.986;2022-12-16T05:23:37;24.53;;;14.03;;
10442;SDS011;5269;51.146;16.986;2022-12-16T05:26:23;24.47;;;13.97;;
10442;SDS011;5269;51.146;16.986;2022-12-16T05:29:07;27.17;;;14.20;;
10442;SDS011;5269;51.146;16.986;2022-12-16T05:31:51;26.90;;;15.30;;
10442;SDS011;5269;51.146;16.986;2022-12-16T05:34:36;24.80;;;13.80;;
10442;SDS011;5269;51.146;16.986;2022-12-16T05:37:20;29.13;;;15.60;;
10442;SDS011;5269;51.146;16.986;2022-12-16T05:40:01;23.57;;;14.13;;
10442;SDS011;5269;51.146;16.986;2022-12-16T05:42:47;23.40;;;14.27;;
10442;SDS011;5269;51.146;16.986;2022-12-16T05:45:37;28.63;;;14.20;;
10442;SDS011;5269;51.146;16.986;2022-12-16T05:48:24;25.43;;;14.00;;
10442;SDS011;5269;51.146;16.986;2022-12-16T05:51:09;28.67;;;14.87;;
10442;SDS011;5269;51.146;16.986;2022-12-16T05:53:54;25.30;;;13.13;;
10442;SDS011;5269;51.146;16.986;2022-12-16T05:56:54;24.90;;;13.00;;
10442;SDS011;5269;51.146;16.986;2022-12-16T05:59:40;22.50;;;14.10;;
10442;SDS011;5269;51.146;16.986;2022-12-16T06:02:24;24.90;;;13.43;;
10442;SDS011;5269;51.146;16.986;2022-12-16T06:05:09;28.27;;;14.90;;
10442;SDS011;5269;51.146;16.986;2022-12-16T06:07:49;27.33;;;13.37;;
10442;SDS011;5269;51.146;16.986;2022-12-16T06:10:33;20.00;;;10.57;;
10442;SDS011;5269;51.146;16.986;2022-12-16T06:13:17;26.83;;;13.07;;
10442;SDS011;5269;51.146;16.986;2022-12-16T06:19:04;24.37;;;13.50;;
10442;SDS011;5269;51.146;16.986;2022-12-16T06:21:49;26.10;;;14.90;;
10442;SDS011;5269;51.146;16.986;2022-12-16T06:24:33;21.90;;;13.83;;
10442;SDS011;5269;51.146;16.986;2022-12-16T06:27:18;27.70;;;15.03;;
10442;SDS011;5269;51.146;16.986;2022-12-16T06:30:02;26.40;;;14.23;;
10442;SDS011;5269;51.146;16.986;2022-12-16T06:32:47;24.60;;;13.30;;
10442;SDS011;5269;51.146;16.986;2022-12-16T06:35:33;26.33;;;13.43;;
10442;SDS011;5269;51.146;16.986;2022-12-16T06:38:17;27.40;;;14.53;;
10442;SDS011;5269;51.146;16.986;2022-12-16T06:41:01;22.07;;;12.87;;
10442;SDS011;5269;51.146;16.986;2022-12-16T07:14:51;28.83;;;16.63;;
10442;SDS011;5269;51.146;16.986;2022-12-16T07:17:43;27.80;;;15.60;;
10442;SDS011;5269;51.146;16.986;2022-12-16T07:23:15;30.37;;;17.23;;
10442;SDS011;5269;51.146;16.986;2022-12-16T07:25:59;25.00;;;15.13;;
10442;SDS011;5269;51.146;16.986;2022-12-16T07:28:44;27.53;;;16.07;;
10442;SDS011;5269;51.146;16.986;2022-12-16T07:31:31;27.40;;;14.50;;
10442;SDS011;5269;51.146;16.986;2022-12-16T07:34:15;28.97;;;15.23;;
10442;SDS011;5269;51.146;16.986;2022-12-16T07:40:34;25.37;;;15.27;;
10442;SDS011;5269;51.146;16.986;2022-12-16T07:43:18;24.13;;;14.77;;
10442;SDS011;5269;51.146;16.986;2022-12-16T07:46:04;29.27;;;16.60;;
10442;SDS011;5269;51.146;16.986;2022-12-16T07:48:49;28.83;;;15.40;;
10442;SDS011;5269;51.146;16.986;2022-12-16T07:51:35;28.80;;;15.43;;
10442;SDS011;5269;51.146;16.986;2022-12-16T07:54:19;24.70;;;13.93;;
10442;SDS011;5269;51.146;16.986;2022-12-16T07:57:03;26.23;;;16.00;;
10442;SDS011;5269;51.146;16.986;2022-12-16T07:59:47;31.60;;;16.10;;
10442;SDS011;5269;51.146;16.986;2022-12-16T08:02:31;26.40;;;15.83;;
10442;SDS011;5269;51.146;16.986;2022-12-16T08:05:17;32.80;;;16.70;;
10442;SDS011;5269;51.146;16.986;2022-12-16T08:08:02;30.60;;;16.30;;
10442;SDS011;5269;51.146;16.986;2022-12-16T08:10:46;30.17;;;16.57;;
10442;SDS011;5269;51.146;16.986;2022-12-16T08:13:30;25.20;;;15.73;;
10442;SDS011;5269;51.146;16.986;2022-12-16T08:16:15;28.97;;;16.90;;
10442;SDS011;5269;51.146;16.986;2022-12-16T08:18:59;29.93;;;17.33;;
10442;SDS011;5269;51.146;16.986;2022-12-16T08:21:44;29.50;;;17.03;;
10442;SDS011;5269;51.146;16.986;2022-12-16T08:24:29;21.80;;;12.40;;
10442;SDS011;5269;51.146;16.986;2022-12-16T08:27:13;32.37;;;16.80;;
10442;SDS011;5269;51.146;16.986;2022-12-16T08:29:57;31.83;;;17.23;;
10442;SDS011;5269;51.146;16.986;2022-12-16T08:32:38;30.17;;;17.07;;
10442;SDS011;5269;51.146;16.986;2022-12-16T08:35:37;32.50;;;16.77;;
10442;SDS011;5269;51.146;16.986;2022-12-16T08:38:23;32.67;;;18.17;;
10442;SDS011;5269;51.146;16.986;2022-12-16T08:41:07;37.63;;;20.47;;
10442;SDS011;5269;51.146;16.986;2022-12-16T08:43:51;36.70;;;20.40;;
10442;SDS011;5269;51.146;16.986;2022-12-16T08:46:35;32.17;;;17.47;;
10442;SDS011;5269;51.146;16.986;2022-12-16T08:49:20;33.53;;;16.97;;
10442;SDS011;5269;51.146;16.986;2022-12-16T08:52:04;34.50;;;19.17;;
10442;SDS011;5269;51.146;16.986;2022-12-16T08:54:49;32.27;;;17.60;;
10442;SDS011;5269;51.146;16.986;2022-12-16T08:57:34;35.57;;;18.47;;
10442;SDS011;5269;51.146;16.986;2022-12-16T09:00:18;34.20;;;18.43;;
10442;SDS011;5269;51.146;16.986;2022-12-16T09:03:03;32.17;;;18.43;;
10442;SDS011;5269;51.146;16.986;2022-12-16T09:05:47;29.03;;;15.47;;
10442;SDS011;5269;51.146;16.986;2022-12-16T09:08:31;33.97;;;19.30;;
10442;SDS011;5269;51.146;16.986;2022-12-16T09:11:17;35.40;;;19.13;;
10442;SDS011;5269;51.146;16.986;2022-12-16T09:14:01;35.53;;;20.43;;
10442;SDS011;5269;51.146;16.986;2022-12-16T09:16:46;38.27;;;21.67;;
10442;SDS011;5269;51.146;16.986;2022-12-16T09:19:31;31.60;;;16.97;;
10442;SDS011;5269;51.146;16.986;2022-12-16T09:22:15;33.07;;;20.37;;
10442;SDS011;5269;51.146;16.986;2022-12-16T09:24:59;45.63;;;24.27;;
10442;SDS011;5269;51.146;16.986;2022-12-16T09:27:45;38.57;;;21.07;;
10442;SDS011;5269;51.146;16.986;2022-12-16T09:30:31;40.23;;;22.90;;
10442;SDS011;5269;51.146;16.986;2022-12-16T09:33:15;40.43;;;20.30;;
10442;SDS011;5269;51.146;16.986;2022-12-16T09:36:00;42.70;;;23.67;;
10442;SDS011;5269;51.146;16.986;2022-12-16T09:38:44;42.80;;;25.67;;
10442;SDS011;5269;51.146;16.986;2022-12-16T09:41:31;36.73;;;20.97;;
10442;SDS011;5269;51.146;16.986;2022-12-16T09:44:28;28.10;;;18.10;;
10442;SDS011;5269;51.146;16.986;2022-12-16T09:47:24;37.40;;;20.77;;
10442;SDS011;5269;51.146;16.986;2022-12-16T09:50:17;33.37;;;19.77;;
10442;SDS011;5269;51.146;16.986;2022-12-16T09:53:03;33.63;;;19.83;;
10442;SDS011;5269;51.146;16.986;2022-12-16T09:55:53;37.80;;;21.40;;
10442;SDS011;5269;51.146;16.986;2022-12-16T09:58:38;35.83;;;20.50;;
10442;SDS011;5269;51.146;16.986;2022-12-16T10:01:28;42.30;;;23.73;;
10442;SDS011;5269;51.146;16.986;2022-12-16T10:04:15;36.53;;;18.83;;
10442;SDS011;5269;51.146;16.986;2022-12-16T10:07:00;36.77;;;21.60;;
10442;SDS011;5269;51.146;16.986;2022-12-16T10:09:46;32.17;;;19.73;;
10442;SDS011;5269;51.146;16.986;2022-12-16T10:12:42;38.33;;;20.13;;
10442;SDS011;5269;51.146;16.986;2022-12-16T10:15:33;38.30;;;21.23;;
10442;SDS011;5269;51.146;16.986;2022-12-16T10:18:28;40.73;;;21.83;;
10442;SDS011;5269;51.146;16.986;2022-12-16T10:21:26;40.80;;;22.53;;
10442;SDS011;5269;51.146;16.986;2022-12-16T10:24:18;39.93;;;21.73;;
10442;SDS011;5269;51.146;16.986;2022-12-16T10:27:10;38.83;;;20.77;;
10442;SDS011;5269;51.146;16.986;2022-12-16T10:29:57;41.17;;;23.03;;
10442;SDS011;5269;51.146;16.986;2022-12-16T10:32:43;36.53;;;21.37;;
10442;SDS011;5269;51.146;16.986;2022-12-16T10:35:32;39.17;;;21.30;;
10442;SDS011;5269;51.146;16.986;2022-12-16T10:38:20;42.50;;;24.37;;
10442;SDS011;5269;51.146;16.986;2022-12-16T10:41:07;41.40;;;22.67;;
10442;SDS011;5269;51.146;16.986;2022-12-16T10:43:56;38.27;;;21.43;;
10442;SDS011;5269;51.146;16.986;2022-12-16T10:46:42;40.90;;;24.07;;
10442;SDS011;5269;51.146;16.986;2022-12-16T10:49:26;38.27;;;22.97;;
10442;SDS011;5269;51.146;16.986;2022-12-16T10:52:12;41.63;;;23.37;;
10442;SDS011;5269;51.146;16.986;2022-12-16T10:54:58;39.37;;;23.73;;
10442;SDS011;5269;51.146;16.986;2022-12-16T10:57:57;31.13;;;17.73;;
10442;SDS011;5269;51.146;16.986;2022-12-16T11:00:49;42.23;;;23.53;;
10442;SDS011;5269;51.146;16.986;2022-12-16T11:03:35;39.97;;;21.60;;
10442;SDS011;5269;51.146;16.986;2022-12-16T11:06:21;38.37;;;20.87;;
10442;SDS011;5269;51.146;16.986;2022-12-16T11:09:20;47.80;;;24.87;;
10442;SDS011;5269;51.146;16.986;2022-12-16T11:12:16;44.90;;;21.60;;
10442;SDS011;5269;51.146;16.986;2022-12-16T11:15:16;54.47;;;28.13;;
10442;SDS011;5269;51.146;16.986;2022-12-16T11:18:04;42.97;;;23.07;;
10442;SDS011;5269;51.146;16.986;2022-12-16T11:21:02;41.50;;;24.03;;
10442;SDS011;5269;51.146;16.986;2022-12-16T11:24:05;46.57;;;24.53;;
10442;SDS011;5269;51.146;16.986;2022-12-16T11:26:57;44.83;;;24.30;;
10442;SDS011;5269;51.146;16.986;2022-12-16T11:29:49;43.07;;;23.63;;
10442;SDS011;5269;51.146;16.986;2022-12-16T11:32:36;36.00;;;19.87;;
10442;SDS011;5269;51.146;16.986;2022-12-16T11:35:23;44.40;;;24.90;;
10442;SDS011;5269;51.146;16.986;2022-12-16T11:38:12;46.00;;;24.70;;
10442;SDS011;5269;51.146;16.986;2022-12-16T11:41:05;44.97;;;25.47;;
10442;SDS011;5269;51.146;16.986;2022-12-16T11:43:53;45.70;;;24.13;;
10442;SDS011;5269;51.146;16.986;2022-12-16T11:46:38;46.27;;;25.23;;
10442;SDS011;5269;51.146;16.986;2022-12-16T11:49:23;41.33;;;22.10;;
10442;SDS011;5269;51.146;16.986;2022-12-16T11:52:14;44.33;;;23.77;;
10442;SDS011;5269;51.146;16.986;2022-12-16T11:54:58;39.97;;;21.53;;
10442;SDS011;5269;51.146;16.986;2022-12-16T11:57:49;44.80;;;26.37;;
10442;SDS011;5269;51.146;16.986;2022-12-16T12:00:51;32.20;;;20.43;;
10442;SDS011;5269;51.146;16.986;2022-12-16T12:03:43;42.33;;;24.97;;
10442;SDS011;5269;51.146;16.986;2022-12-16T12:06:33;39.43;;;22.70;;
10442;SDS011;5269;51.146;16.986;2022-12-16T12:09:28;46.57;;;23.97;;
10442;SDS011;5269;51.146;16.986;2022-12-16T12:12:20;38.03;;;21.83;;
10442;SDS011;5269;51.146;16.986;2022-12-16T12:15:13;48.37;;;25.23;;
10442;SDS011;5269;51.146;16.986;2022-12-16T12:18:13;44.67;;;23.90;;
10442;SDS011;5269;51.146;16.986;2022-12-16T12:21:17;46.53;;;24.97;;
10442;SDS011;5269;51.146;16.986;2022-12-16T12:24:08;50.50;;;26.87;;
10442;SDS011;5269;51.146;16.986;2022-12-16T12:27:07;46.20;;;24.97;;
10442;SDS011;5269;51.146;16.986;2022-12-16T12:30:01;45.13;;;25.37;;
10442;SDS011;5269;51.146;16.986;2022-12-16T12:32:51;41.80;;;21.40;;
10442;SDS011;5269;51.146;16.986;2022-12-16T12:35:48;43.57;;;23.83;;
10442;SDS011;5269;51.146;16.986;2022-12-16T12:38:43;51.90;;;26.23;;
10442;SDS011;5269;51.146;16.986;2022-12-16T12:41:44;48.93;;;25.93;;
10442;SDS011;5269;51.146;16.986;2022-12-16T12:44:38;45.27;;;24.83;;
10442;SDS011;5269;51.146;16.986;2022-12-16T12:47:28;37.03;;;19.80;;
10442;SDS011;5269;51.146;16.986;2022-12-16T12:50:16;38.73;;;23.33;;
10442;SDS011;5269;51.146;16.986;2022-12-16T12:53:12;41.47;;;22.73;;
10442;SDS011;5269;51.146;16.986;2022-12-16T12:56:23;45.90;;;24.03;;
10442;SDS011;5269;51.146;16.986;2022-12-16T13:02:44;48.83;;;23.73;;
10442;SDS011;5269;51.146;16.986;2022-12-16T13:05:35;36.93;;;21.77;;
10442;SDS011;5269;51.146;16.986;2022-12-16T13:08:39;43.87;;;22.50;;
10442;SDS011;5269;51.146;16.986;2022-12-16T13:28:43;47.00;;;25.17;;
10442;SDS011;5269;51.146;16.986;2022-12-16T13:32:15;43.13;;;23.07;;
10442;SDS011;5269;51.146;16.986;2022-12-16T13:35:01;45.07;;;24.63;;
10442;SDS011;5269;51.146;16.986;2022-12-16T13:37:55;45.40;;;24.60;;
10442;SDS011;5269;51.146;16.986;2022-12-16T13:40:47;49.17;;;23.97;;
10442;SDS011;5269;51.146;16.986;2022-12-16T13:43:40;47.17;;;26.07;;
10442;SDS011;5269;51.146;16.986;2022-12-16T13:46:41;41.70;;;22.93;;
10442;SDS011;5269;51.146;16.986;2022-12-16T13:49:45;36.57;;;19.73;;
10442;SDS011;5269;51.146;16.986;2022-12-16T13:52:34;45.73;;;25.20;;
10442;SDS011;5269;51.146;16.986;2022-12-16T13:55:29;54.97;;;32.30;;
10442;SDS011;5269;51.146;16.986;2022-12-16T13:58:18;48.70;;;25.03;;
10442;SDS011;5269;51.146;16.986;2022-12-16T14:04:06;51.23;;;27.67;;
10442;SDS011;5269;51.146;16.986;2022-12-16T14:07:08;41.43;;;23.53;;
10442;SDS011;5269;51.146;16.986;2022-12-16T14:20:55;53.90;;;31.63;;
10442;SDS011;5269;51.146;16.986;2022-12-16T14:23:46;58.83;;;28.97;;
10442;SDS011;5269;51.146;16.986;2022-12-16T14:26:36;57.80;;;29.87;;
10442;SDS011;5269;51.146;16.986;2022-12-16T14:29:22;53.20;;;28.57;;
10442;SDS011;5269;51.146;16.986;2022-12-16T14:32:18;46.43;;;21.43;;
10442;SDS011;5269;51.146;16.986;2022-12-16T14:35:17;37.57;;;19.80;;
10442;SDS011;5269;51.146;16.986;2022-12-16T14:38:19;49.40;;;25.47;;
10442;SDS011;5269;51.146;16.986;2022-12-16T14:41:14;50.93;;;27.10;;
10442;SDS011;5269;51.146;16.986;2022-12-16T14:44:12;51.97;;;26.30;;
10442;SDS011;5269;51.146;16.986;2022-12-16T14:47:01;46.30;;;24.87;;
10442;SDS011;5269;51.146;16.986;2022-12-16T14:49:54;53.60;;;28.20;;
10442;SDS011;5269;51.146;16.986;2022-12-16T14:52:38;39.53;;;20.63;;
10442;SDS011;5269;51.146;16.986;2022-12-16T14:55:27;47.60;;;25.60;;
10442;SDS011;5269;51.146;16.986;2022-12-16T14:58:13;58.00;;;25.83;;
10442;SDS011;5269;51.146;16.986;2022-12-16T15:00:59;48.83;;;25.97;;
10442;SDS011;5269;51.146;16.986;2022-12-16T15:03:54;35.63;;;19.60;;
10442;SDS011;5269;51.146;16.986;2022-12-16T15:06:39;46.93;;;25.00;;
10442;SDS011;5269;51.146;16.986;2022-12-16T15:09:26;48.33;;;24.60;;
10442;SDS011;5269;51.146;16.986;2022-12-16T15:12:14;35.33;;;18.43;;
10442;SDS011;5269;51.146;16.986;2022-12-16T15:15:02;55.20;;;27.67;;
10442;SDS011;5269;51.146;16.986;2022-12-16T15:17:50;52.00;;;26.63;;
10442;SDS011;5269;51.146;16.986;2022-12-16T15:20:44;49.67;;;26.27;;
10442;SDS011;5269;51.146;16.986;2022-12-16T15:23:37;46.63;;;25.27;;
10442;SDS011;5269;51.146;16.986;2022-12-16T15:26:23;50.07;;;26.90;;
10442;SDS011;5269;51.146;16.986;2022-12-16T15:35:24;52.80;;;26.03;;
10442;SDS011;5269;51.146;16.986;2022-12-16T15:38:10;45.70;;;24.50;;
10442;SDS011;5269;51.146;16.986;2022-12-16T15:40:55;50.47;;;25.10;;
10442;SDS011;5269;51.146;16.986;2022-12-16T15:43:40;53.13;;;25.53;;
10442;SDS011;5269;51.146;16.986;2022-12-16T15:46:29;41.80;;;23.00;;
10442;SDS011;5269;51.146;16.986;2022-12-16T15:49:15;48.00;;;25.23;;
10442;SDS011;5269;51.146;16.986;2022-12-16T15:52:08;49.60;;;26.43;;
10442;SDS011;5269;51.146;16.986;2022-12-16T15:55:20;54.67;;;25.60;;
10442;SDS011;5269;51.146;16.986;2022-12-16T15:58:10;42.83;;;24.23;;
10442;SDS011;5269;51.146;16.986;2022-12-16T16:00:57;50.13;;;26.70;;
10442;SDS011;5269;51.146;16.986;2022-12-16T16:03:50;56.90;;;26.57;;
10442;SDS011;5269;51.146;16.986;2022-12-16T16:06:41;47.87;;;25.33;;
10442;SDS011;5269;51.146;16.986;2022-12-16T16:09:30;48.63;;;24.73;;
10442;SDS011;5269;51.146;16.986;2022-12-16T16:12:16;47.07;;;25.10;;
10442;SDS011;5269;51.146;16.986;2022-12-16T16:15:02;51.80;;;25.43;;
10442;SDS011;5269;51.146;16.986;2022-12-16T16:17:49;48.87;;;25.57;;
10442;SDS011;5269;51.146;16.986;2022-12-16T16:20:38;47.43;;;25.43;;
10442;SDS011;5269;51.146;16.986;2022-12-16T16:23:23;52.10;;;25.40;;
10442;SDS011;5269;51.146;16.986;2022-12-16T16:26:07;50.37;;;26.33;;
10442;SDS011;5269;51.146;16.986;2022-12-16T16:28:53;44.97;;;23.93;;
10442;SDS011;5269;51.146;16.986;2022-12-16T16:31:40;50.33;;;25.27;;
10442;SDS011;5269;51.146;16.986;2022-12-16T16:34:30;51.53;;;24.60;;
10442;SDS011;5269;51.146;16.986;2022-12-16T16:37:17;50.00;;;26.47;;
10442;SDS011;5269;51.146;16.986;2022-12-16T16:40:07;46.60;;;23.83;;
10442;SDS011;5269;51.146;16.986;2022-12-16T16:42:58;46.23;;;23.77;;
10442;SDS011;5269;51.146;16.986;2022-12-16T16:45:42;48.27;;;24.67;;
10442;SDS011;5269;51.146;16.986;2022-12-16T16:48:41;47.07;;;25.20;;
10442;SDS011;5269;51.146;16.986;2022-12-16T16:51:25;49.83;;;25.57;;
10442;SDS011;5269;51.146;16.986;2022-12-16T16:54:12;50.73;;;27.00;;
10442;SDS011;5269;51.146;16.986;2022-12-16T16:56:56;48.37;;;25.10;;
10442;SDS011;5269;51.146;16.986;2022-12-16T16:59:43;50.53;;;27.67;;
10442;SDS011;5269;51.146;16.986;2022-12-16T17:02:28;51.07;;;26.37;;
10442;SDS011;5269;51.146;16.986;2022-12-16T17:05:12;50.43;;;26.60;;
10442;SDS011;5269;51.146;16.986;2022-12-16T17:07:59;53.23;;;27.60;;
10442;SDS011;5269;51.146;16.986;2022-12-16T17:10:45;50.20;;;26.23;;
10442;SDS011;5269;51.146;16.986;2022-12-16T17:13:30;55.70;;;26.97;;
10442;SDS011;5269;51.146;16.986;2022-12-16T17:16:16;45.80;;;25.87;;
10442;SDS011;5269;51.146;16.986;2022-12-16T17:19:00;49.23;;;26.60;;
10442;SDS011;5269;51.146;16.986;2022-12-16T17:21:44;51.57;;;26.47;;